Time;durP1;ratioP1;P1;durP2;ratioP2;P2;SDS_P1;SDS_P2;PMS_P1;PMS_P2;Temp;Humidity;BMP_temperature;BMP_pressure;BME280_temperature;BME280_humidity;BME280_pressure;Samples;Min_cycle;Max_cycle;Signal;HPM_P1;HPM_P2
2022/08/30 00:03:02;;;;;;;4.40;1.60;;;13.20;99.90;;;;;;5094022;28;20035;-92
2022/08/30 00:05:29;;;;;;;2.00;1.60;;;13.10;99.90;;;;;;5089314;28;20088;-92
2022/08/30 00:07:56;;;;;;;2.60;1.70;;;13.10;99.90;;;;;;5086640;28;20024;-93
2022/08/30 00:10:22;;;;;;;8.75;1.98;;;13.00;99.90;;;;;;5088018;28;20056;-92
2022/08/30 00:12:48;;;;;;;6.50;2.05;;;13.10;99.90;;;;;;5087198;28;20024;-93
2022/08/30 00:15:16;;;;;;;9.65;2.03;;;13.00;99.90;;;;;;5087503;28;20477;-92
2022/08/30 00:17:43;;;;;;;4.38;1.83;;;13.00;99.90;;;;;;5087148;28;20060;-90
2022/08/30 00:20:13;;;;;;;4.78;1.90;;;13.00;99.90;;;;;;5086535;28;20028;-91
2022/08/30 00:22:40;;;;;;;3.60;2.00;;;12.90;99.90;;;;;;5089704;28;20591;-93
2022/08/30 00:25:07;;;;;;;3.22;2.05;;;12.90;99.90;;;;;;5091286;28;20054;-92
2022/08/30 00:27:33;;;;;;;5.35;1.95;;;12.80;99.90;;;;;;5090166;28;20055;-95
2022/08/30 00:29:59;;;;;;;6.05;1.70;;;12.80;99.90;;;;;;5088598;28;20123;-93
2022/08/30 00:32:25;;;;;;;3.88;1.75;;;12.70;99.90;;;;;;5089084;28;20059;-94
2022/08/30 00:34:52;;;;;;;4.93;2.08;;;12.70;99.90;;;;;;5091859;28;20032;-93
2022/08/30 00:37:20;;;;;;;4.20;1.88;;;12.70;99.90;;;;;;5084919;28;20025;-94
2022/08/30 00:39:47;;;;;;;4.82;1.98;;;12.70;99.90;;;;;;5088581;28;20024;-92
2022/08/30 00:42:13;;;;;;;4.38;2.08;;;12.60;99.90;;;;;;5089867;28;20031;-92
2022/08/30 00:44:40;;;;;;;4.85;2.38;;;12.60;99.90;;;;;;5094514;28;20031;-93
2022/08/30 00:47:06;;;;;;;4.55;1.70;;;12.60;99.90;;;;;;5101287;28;20008;-91
2022/08/30 00:49:34;;;;;;;5.65;1.80;;;12.60;99.90;;;;;;5108374;28;20024;-91
2022/08/30 00:52:02;;;;;;;4.95;2.20;;;12.50;99.90;;;;;;5102506;28;20024;-93
2022/08/30 00:54:29;;;;;;;4.88;1.90;;;12.50;99.90;;;;;;5099417;28;20028;-93
2022/08/30 00:56:55;;;;;;;3.15;2.05;;;12.50;99.90;;;;;;5106520;28;20083;-92
2022/08/30 00:59:23;;;;;;;6.10;1.80;;;12.50;99.90;;;;;;5105848;28;20032;-94
2022/08/30 01:01:49;;;;;;;5.55;1.80;;;12.50;99.90;;;;;;5095568;28;20021;-92
2022/08/30 01:04:18;;;;;;;3.33;1.75;;;12.50;99.90;;;;;;5094673;28;20024;-92
2022/08/30 01:06:44;;;;;;;6.90;2.25;;;12.60;99.90;;;;;;5091163;28;20025;-94
2022/08/30 01:09:11;;;;;;;4.57;1.98;;;12.60;99.90;;;;;;5098230;28;20031;-92
2022/08/30 01:11:40;;;;;;;6.50;2.20;;;12.70;99.90;;;;;;5106814;28;20041;-92
2022/08/30 01:14:07;;;;;;;3.85;2.03;;;12.70;99.90;;;;;;5098276;28;20038;-93
2022/08/30 01:16:34;;;;;;;7.80;2.10;;;12.70;99.90;;;;;;5100377;28;20477;-93
2022/08/30 01:19:00;;;;;;;8.35;1.98;;;12.80;99.90;;;;;;5099472;28;20059;-94
2022/08/30 01:21:30;;;;;;;4.30;1.85;;;12.80;99.90;;;;;;5090751;28;20028;-92
2022/08/30 01:23:57;;;;;;;6.18;2.10;;;12.90;99.90;;;;;;5089769;28;20033;-93
2022/08/30 01:26:25;;;;;;;3.15;1.60;;;12.90;99.90;;;;;;5089514;28;20020;-93
2022/08/30 01:28:58;;;;;;;6.53;2.05;;;12.90;99.90;;;;;;5090637;28;20092;-93
2022/08/30 01:31:24;;;;;;;5.65;1.90;;;12.80;99.90;;;;;;5087099;28;20016;-92
2022/08/30 01:33:49;;;;;;;6.43;1.70;;;12.80;99.90;;;;;;5086581;28;20042;-92
2022/08/30 01:36:16;;;;;;;5.13;1.92;;;12.80;99.90;;;;;;5088877;28;20020;-94
2022/08/30 01:38:51;;;;;;;6.25;1.73;;;12.80;99.90;;;;;;5089542;28;20043;-93
2022/08/30 01:41:26;;;;;;;1.73;1.60;;;12.80;99.90;;;;;;5091538;28;20103;-93
2022/08/30 01:43:56;;;;;;;2.88;1.60;;;12.80;99.90;;;;;;5089645;28;20173;-93
2022/08/30 01:46:25;;;;;;;3.40;1.73;;;12.80;99.90;;;;;;5093509;28;20127;-93
2022/08/30 01:48:53;;;;;;;9.38;2.30;;;12.80;99.90;;;;;;5089810;28;20138;-93
2022/08/30 01:51:20;;;;;;;4.70;1.58;;;12.80;99.90;;;;;;5100081;28;20084;-93
2022/08/30 01:53:48;;;;;;;2.53;1.67;;;12.80;99.90;;;;;;5090867;28;20024;-92
2022/08/30 01:56:14;;;;;;;4.30;1.30;;;12.80;99.90;;;;;;5078032;28;20032;-90
2022/08/30 01:58:41;;;;;;;4.25;1.45;;;12.80;99.90;;;;;;5100070;28;20009;-90
2022/08/30 02:01:11;;;;;;;2.88;1.50;;;12.70;99.90;;;;;;5104675;28;20025;-94
2022/08/30 02:03:38;;;;;;;2.60;1.25;;;12.70;99.90;;;;;;5094154;28;20016;-91
2022/08/30 02:06:07;;;;;;;2.05;1.52;;;12.70;99.90;;;;;;5088756;28;20240;-92
2022/08/30 02:08:33;;;;;;;6.65;1.23;;;12.70;99.90;;;;;;5093985;28;20032;-90
2022/08/30 02:10:59;;;;;;;2.45;1.30;;;12.70;99.90;;;;;;5100090;28;20090;-91
2022/08/30 02:13:29;;;;;;;1.45;1.20;;;12.70;99.90;;;;;;5094835;28;20126;-92
2022/08/30 02:15:55;;;;;;;1.98;1.27;;;12.60;99.90;;;;;;5091258;28;20027;-90
2022/08/30 02:18:25;;;;;;;3.38;1.35;;;12.60;99.90;;;;;;5087587;28;20025;-91
2022/08/30 02:20:51;;;;;;;2.92;1.63;;;12.50;99.90;;;;;;5090214;28;20103;-91
2022/08/30 02:23:17;;;;;;;2.05;1.30;;;12.50;99.90;;;;;;5092373;28;20024;-92
2022/08/30 02:25:45;;;;;;;3.13;1.45;;;12.40;99.90;;;;;;5081897;28;20076;-92
2022/08/30 02:28:12;;;;;;;2.13;1.17;;;12.40;99.90;;;;;;5086980;28;20025;-92
2022/08/30 02:30:38;;;;;;;6.03;1.48;;;12.30;99.90;;;;;;5089484;28;20036;-92
2022/08/30 02:33:04;;;;;;;1.55;1.33;;;12.30;99.90;;;;;;5089993;28;20012;-91
2022/08/30 02:35:30;;;;;;;4.80;1.13;;;12.30;99.90;;;;;;5090660;28;20114;-93
2022/08/30 02:37:56;;;;;;;5.75;1.30;;;12.30;99.90;;;;;;5087829;28;20055;-92
2022/08/30 02:40:22;;;;;;;3.60;1.30;;;12.30;99.90;;;;;;5087209;28;20024;-93
2022/08/30 02:42:48;;;;;;;3.72;0.90;;;12.20;99.90;;;;;;5086244;28;20026;-93
2022/08/30 02:45:14;;;;;;;1.65;1.20;;;12.20;99.90;;;;;;5085824;28;20424;-92
2022/08/30 02:47:41;;;;;;;1.65;1.20;;;12.20;99.90;;;;;;5086605;28;20024;-91
2022/08/30 02:50:08;;;;;;;4.45;1.35;;;12.20;99.90;;;;;;5086014;28;20469;-92
2022/08/30 02:52:35;;;;;;;2.05;1.30;;;12.10;99.90;;;;;;5083099;28;20029;-93
2022/08/30 02:55:02;;;;;;;3.80;1.25;;;12.00;99.90;;;;;;5085347;28;20438;-93
2022/08/30 02:57:28;;;;;;;4.60;1.13;;;12.00;99.90;;;;;;5090992;28;20116;-93
2022/08/30 02:59:57;;;;;;;2.03;1.17;;;12.00;99.90;;;;;;5093788;28;20052;-92
2022/08/30 03:02:23;;;;;;;2.65;1.00;;;11.90;99.90;;;;;;5090949;28;20027;-92
2022/08/30 03:04:50;;;;;;;3.47;1.20;;;12.00;99.90;;;;;;5093958;28;20020;-92
2022/08/30 03:07:16;;;;;;;4.22;1.63;;;12.00;99.90;;;;;;5099621;28;20028;-93
2022/08/30 03:09:41;;;;;;;1.33;1.10;;;11.90;99.90;;;;;;5094789;28;20024;-93
2022/08/30 03:12:08;;;;;;;1.25;1.00;;;11.90;99.90;;;;;;5106240;28;20100;-88
2022/08/30 03:14:36;;;;;;;2.92;1.20;;;11.90;99.90;;;;;;5103625;28;20125;-92
2022/08/30 03:17:05;;;;;;;3.17;1.10;;;11.80;99.90;;;;;;5099206;28;20029;-92
2022/08/30 03:19:32;;;;;;;1.55;1.13;;;11.80;99.90;;;;;;5091958;28;20050;-94
2022/08/30 03:21:58;;;;;;;1.50;1.13;;;11.70;99.90;;;;;;5092580;28;20051;-91
2022/08/30 03:24:24;;;;;;;1.77;1.00;;;11.70;99.90;;;;;;5065840;28;20111;-92
2022/08/30 03:26:51;;;;;;;1.45;1.10;;;11.70;99.90;;;;;;5090827;28;20541;-92
2022/08/30 03:29:17;;;;;;;1.60;1.15;;;11.60;99.90;;;;;;5095943;28;20036;-91
2022/08/30 03:31:43;;;;;;;1.38;1.08;;;11.70;99.90;;;;;;5105915;28;20028;-92
2022/08/30 03:34:09;;;;;;;1.60;1.08;;;11.60;99.90;;;;;;5095064;28;20080;-94
2022/08/30 03:36:38;;;;;;;3.17;1.50;;;11.60;99.90;;;;;;5092382;28;20020;-94
2022/08/30 03:39:08;;;;;;;3.53;1.10;;;11.50;99.90;;;;;;5092471;28;20035;-92
2022/08/30 03:41:34;;;;;;;2.83;1.30;;;11.50;99.90;;;;;;5088898;28;20012;-92
2022/08/30 03:44:01;;;;;;;5.13;1.20;;;11.50;99.90;;;;;;5090107;28;20021;-93
2022/08/30 03:46:27;;;;;;;3.00;1.33;;;11.40;99.90;;;;;;5087461;28;20439;-92
2022/08/30 03:48:54;;;;;;;3.22;1.40;;;11.40;99.90;;;;;;5086441;28;20029;-94
2022/08/30 03:51:21;;;;;;;2.60;1.40;;;11.30;99.90;;;;;;5091624;28;20064;-92
2022/08/30 03:53:47;;;;;;;2.00;1.23;;;11.30;99.90;;;;;;5090479;28;20530;-93
2022/08/30 03:56:13;;;;;;;1.25;1.15;;;11.20;99.90;;;;;;5088078;28;20111;-92
2022/08/30 03:58:39;;;;;;;1.05;0.95;;;11.20;99.90;;;;;;5088470;28;20059;-91
2022/08/30 04:01:06;;;;;;;3.42;1.52;;;11.20;99.90;;;;;;5090627;28;20106;-93
2022/08/30 04:03:32;;;;;;;3.40;1.27;;;11.10;99.90;;;;;;5091253;28;20041;-92
2022/08/30 04:05:59;;;;;;;5.63;1.30;;;11.00;99.90;;;;;;5097027;28;20012;-89
2022/08/30 04:08:25;;;;;;;3.83;1.17;;;11.10;99.90;;;;;;5102411;28;20028;-92
2022/08/30 04:10:52;;;;;;;2.72;1.40;;;11.00;99.90;;;;;;5108644;28;20043;-92
2022/08/30 04:13:19;;;;;;;4.32;1.50;;;11.00;99.90;;;;;;5097110;28;20040;-93
2022/08/30 04:15:45;;;;;;;4.22;1.27;;;10.90;99.90;;;;;;5083332;28;20017;-94
2022/08/30 04:18:10;;;;;;;5.55;1.52;;;10.90;99.90;;;;;;5087758;28;20032;-94
2022/08/30 04:20:37;;;;;;;2.88;1.67;;;11.00;99.90;;;;;;5084026;28;20028;-94
2022/08/30 04:23:05;;;;;;;4.78;1.48;;;11.00;99.90;;;;;;5089065;28;20028;-93
2022/08/30 04:25:32;;;;;;;3.10;1.45;;;11.00;99.90;;;;;;5083783;28;20470;-94
2022/08/30 04:27:58;;;;;;;5.95;1.38;;;11.10;99.90;;;;;;5090439;28;20048;-93
2022/08/30 04:30:24;;;;;;;2.42;1.60;;;11.10;99.90;;;;;;5087426;28;20020;-93
2022/08/30 04:32:50;;;;;;;3.72;1.30;;;11.10;99.90;;;;;;5088770;28;20036;-92
2022/08/30 04:35:16;;;;;;;1.25;1.13;;;11.10;99.90;;;;;;5091727;28;20103;-94
2022/08/30 04:37:42;;;;;;;4.22;1.40;;;11.10;99.90;;;;;;5094228;28;20024;-93
2022/08/30 04:40:09;;;;;;;5.13;1.60;;;11.10;99.90;;;;;;5091206;28;20077;-96
2022/08/30 04:42:35;;;;;;;3.95;1.70;;;11.00;99.90;;;;;;5094345;28;20023;-93
2022/08/30 04:45:07;;;;;;;3.50;2.17;;;11.00;99.90;;;;;;5100148;28;20035;-93
2022/08/30 04:47:34;;;;;;;3.35;1.60;;;11.00;99.90;;;;;;5089750;28;20503;-94
2022/08/30 04:50:00;;;;;;;3.47;1.88;;;11.00;99.90;;;;;;5090447;28;20047;-94
2022/08/30 04:52:27;;;;;;;3.72;1.60;;;11.00;99.90;;;;;;5095300;28;20008;-94
2022/08/30 04:54:54;;;;;;;5.90;1.95;;;11.00;99.90;;;;;;5098622;28;20043;-96
2022/08/30 04:57:21;;;;;;;3.95;2.03;;;11.00;99.90;;;;;;5082101;28;20013;-95
2022/08/30 04:59:46;;;;;;;4.25;1.88;;;11.10;99.90;;;;;;5087264;28;20028;-92
2022/08/30 05:02:14;;;;;;;6.40;2.17;;;11.10;99.90;;;;;;5085850;28;20389;-96
2022/08/30 05:05:38;;;;;;;2.33;1.90;;;11.10;99.90;;;;;;5086430;28;20024;-93
2022/08/30 05:07:26;;;;;;;5.78;1.73;;;11.10;99.90;;;;;;5072113;28;20027;-93
2022/08/30 05:09:52;;;;;;;3.00;1.42;;;11.10;99.90;;;;;;5090723;28;20062;-95
2022/08/30 05:12:18;;;;;;;2.33;1.85;;;11.10;99.90;;;;;;5077183;28;20048;-92
2022/08/30 05:14:44;;;;;;;4.20;1.63;;;11.10;99.90;;;;;;5087652;28;20067;-93
2022/08/30 05:17:10;;;;;;;3.42;1.50;;;11.10;99.90;;;;;;5095446;28;20028;-95
2022/08/30 05:19:36;;;;;;;7.63;1.67;;;11.10;99.90;;;;;;5095730;28;20035;-93
2022/08/30 05:22:06;;;;;;;3.25;1.50;;;11.10;99.90;;;;;;5089166;28;20020;-96
2022/08/30 05:24:32;;;;;;;3.30;1.73;;;11.10;99.90;;;;;;5090219;28;20098;-94
2022/08/30 05:26:58;;;;;;;2.70;1.58;;;11.10;99.90;;;;;;5099596;28;20020;-94
2022/08/30 05:29:24;;;;;;;4.78;1.50;;;11.10;99.90;;;;;;5094389;28;20024;-95
2022/08/30 05:31:49;;;;;;;1.58;1.30;;;11.20;99.90;;;;;;5093235;28;20028;-94
2022/08/30 05:34:15;;;;;;;2.40;1.50;;;11.20;99.90;;;;;;5096886;28;20036;-94
2022/08/30 05:36:41;;;;;;;3.35;1.50;;;11.20;99.90;;;;;;5092832;28;20047;-94
2022/08/30 05:39:11;;;;;;;5.88;3.05;;;11.20;99.90;;;;;;5094412;28;20024;-94
2022/08/30 05:41:37;;;;;;;2.33;1.40;;;11.20;99.90;;;;;;5093531;28;20020;-95
2022/08/30 05:44:06;;;;;;;2.15;1.50;;;11.20;99.90;;;;;;5090580;28;20024;-94
2022/08/30 05:46:33;;;;;;;2.92;1.58;;;11.20;99.90;;;;;;5093629;28;20013;-95
2022/08/30 05:49:02;;;;;;;3.65;1.40;;;11.20;99.90;;;;;;5092561;28;20032;-94
2022/08/30 05:51:30;;;;;;;3.20;1.90;;;11.30;99.90;;;;;;5091424;28;20024;-94
2022/08/30 05:53:57;;;;;;;1.65;1.50;;;11.30;99.90;;;;;;5094934;28;20025;-95
2022/08/30 05:56:36;;;;;;;1.83;1.40;;;11.30;99.90;;;;;;5088239;28;20032;-94
2022/08/30 05:59:05;;;;;;;3.03;1.40;;;11.40;99.90;;;;;;5088774;28;20048;-95
2022/08/30 06:01:37;;;;;;;1.98;1.40;;;11.40;99.90;;;;;;5093053;28;20027;-94
2022/08/30 06:04:04;;;;;;;1.98;1.60;;;11.40;99.90;;;;;;5093024;28;20058;-94
2022/08/30 06:06:32;;;;;;;2.30;1.50;;;11.40;99.90;;;;;;5094688;28;20023;-96
2022/08/30 06:08:58;;;;;;;2.88;1.40;;;11.40;99.90;;;;;;5091085;28;20020;-95
2022/08/30 06:11:25;;;;;;;2.92;1.65;;;11.40;99.90;;;;;;5097924;28;20068;-94
2022/08/30 06:13:52;;;;;;;2.25;1.70;;;11.40;99.90;;;;;;5098721;28;20048;-93
2022/08/30 06:16:21;;;;;;;6.75;1.80;;;11.40;99.90;;;;;;5108611;28;20036;-91
2022/08/30 06:18:47;;;;;;;2.78;1.83;;;11.40;99.90;;;;;;5111272;28;20189;-92
2022/08/30 06:21:18;;;;;;;2.33;1.52;;;11.40;99.90;;;;;;5099836;28;20028;-92
2022/08/30 06:23:45;;;;;;;4.90;2.22;;;11.50;99.90;;;;;;5106035;28;20024;-95
2022/08/30 06:26:11;;;;;;;3.08;1.60;;;11.50;99.90;;;;;;5103999;28;20038;-94
2022/08/30 06:28:37;;;;;;;4.07;1.55;;;11.50;99.90;;;;;;5104585;28;20016;-95
2022/08/30 06:31:09;;;;;;;3.38;1.60;;;11.50;99.90;;;;;;5104748;28;20080;-95
2022/08/30 06:33:36;;;;;;;3.90;2.17;;;11.60;99.90;;;;;;5105217;28;20039;-95
2022/08/30 06:36:07;;;;;;;2.70;2.08;;;11.60;99.90;;;;;;5094596;28;20151;-93
2022/08/30 06:38:33;;;;;;;6.75;1.95;;;11.60;99.90;;;;;;5077982;28;20035;-94
2022/08/30 06:40:59;;;;;;;6.80;2.25;;;11.60;99.90;;;;;;5090076;28;20099;-96
2022/08/30 06:43:26;;;;;;;5.22;1.55;;;11.70;99.90;;;;;;5104951;28;20030;-93
2022/08/30 06:45:51;;;;;;;2.38;1.65;;;11.70;99.90;;;;;;5102133;28;20032;-95
2022/08/30 06:48:20;;;;;;;5.35;1.45;;;11.70;99.90;;;;;;5095203;28;20115;-95
2022/08/30 06:50:53;;;;;;;2.13;1.50;;;11.80;99.90;;;;;;5086344;28;20016;-92
2022/08/30 06:53:21;;;;;;;4.25;1.63;;;11.80;99.90;;;;;;5078969;28;20032;-93
2022/08/30 06:55:59;;;;;;;5.50;2.35;;;11.90;99.90;;;;;;5079511;28;20031;-94
2022/08/30 06:58:26;;;;;;;4.30;1.60;;;11.90;99.90;;;;;;5079909;28;20032;-94
2022/08/30 07:00:52;;;;;;;3.25;1.23;;;12.00;99.90;;;;;;5083071;28;20085;-93
2022/08/30 07:03:18;;;;;;;4.57;1.60;;;12.00;99.90;;;;;;5082109;28;20025;-94
2022/08/30 07:05:46;;;;;;;3.75;1.50;;;12.10;99.90;;;;;;5082088;28;20501;-94
2022/08/30 07:08:12;;;;;;;2.05;1.48;;;12.10;99.90;;;;;;5080625;28;20101;-95
2022/08/30 07:10:39;;;;;;;2.75;1.40;;;12.20;99.90;;;;;;5084704;28;20036;-94
2022/08/30 07:13:08;;;;;;;1.40;1.13;;;12.20;99.90;;;;;;5087643;28;20070;-94
2022/08/30 07:15:35;;;;;;;3.97;1.90;;;12.30;99.90;;;;;;5082346;28;20031;-94
2022/08/30 07:20:45;;;;;;;2.47;1.30;;;12.40;99.90;;;;;;5096814;28;20026;-91
2022/08/30 07:23:11;;;;;;;1.80;1.55;;;12.50;99.90;;;;;;5095291;28;20016;-93
2022/08/30 07:25:39;;;;;;;2.90;1.77;;;12.60;99.90;;;;;;5083536;28;20131;-94
2022/08/30 07:28:06;;;;;;;1.73;1.40;;;12.60;99.90;;;;;;5082791;28;20024;-93
2022/08/30 07:30:32;;;;;;;3.03;1.35;;;12.70;99.90;;;;;;5080198;28;20016;-92
2022/08/30 07:32:58;;;;;;;2.15;1.17;;;12.80;99.90;;;;;;5084668;28;20110;-93
2022/08/30 07:35:26;;;;;;;3.97;1.60;;;12.80;99.90;;;;;;5090109;28;20032;-91
2022/08/30 07:37:52;;;;;;;3.58;1.25;;;12.90;99.90;;;;;;5072688;28;20059;-93
2022/08/30 07:40:17;;;;;;;3.70;1.13;;;13.00;99.90;;;;;;5093475;28;20021;-92
2022/08/30 07:42:43;;;;;;;4.18;1.45;;;13.00;99.90;;;;;;5081639;28;20044;-94
2022/08/30 07:45:10;;;;;;;5.00;1.45;;;13.10;99.90;;;;;;5085331;28;20048;-92
2022/08/30 07:47:36;;;;;;;3.38;1.20;;;13.20;99.90;;;;;;5084386;28;20473;-93
2022/08/30 07:50:03;;;;;;;4.68;1.48;;;13.30;99.90;;;;;;5080039;28;20035;-93
2022/08/30 07:52:29;;;;;;;4.65;1.38;;;13.40;99.90;;;;;;5077351;28;20017;-93
2022/08/30 07:54:59;;;;;;;1.92;1.25;;;13.50;99.90;;;;;;5077214;28;20040;-93
2022/08/30 07:57:25;;;;;;;3.10;1.08;;;13.60;99.90;;;;;;5092870;28;20456;-93
2022/08/30 07:59:51;;;;;;;1.65;1.20;;;13.70;99.90;;;;;;5094107;28;20039;-92
2022/08/30 08:02:18;;;;;;;4.82;1.55;;;13.80;99.90;;;;;;5094446;28;20054;-93
2022/08/30 08:04:44;;;;;;;3.08;1.08;;;13.90;99.90;;;;;;5096179;28;20033;-92
2022/08/30 08:07:10;;;;;;;5.90;1.15;;;14.00;99.90;;;;;;5096398;28;20043;-93
2022/08/30 08:09:37;;;;;;;5.35;1.23;;;14.00;99.90;;;;;;5095443;28;20021;-91
2022/08/30 08:12:05;;;;;;;5.05;1.10;;;14.10;99.90;;;;;;5082728;28;20070;-93
2022/08/30 08:14:31;;;;;;;4.22;1.20;;;14.10;99.90;;;;;;5079582;28;20036;-90
2022/08/30 08:17:00;;;;;;;4.97;1.08;;;14.20;99.90;;;;;;5096074;28;20044;-94
2022/08/30 08:19:26;;;;;;;6.95;1.17;;;14.30;99.90;;;;;;5099981;28;20070;-93
2022/08/30 08:21:55;;;;;;;7.38;1.75;;;14.30;99.90;;;;;;5094863;28;20024;-94
2022/08/30 08:24:22;;;;;;;3.93;1.30;;;14.40;99.90;;;;;;5097141;28;20028;-93
2022/08/30 08:26:48;;;;;;;2.95;1.10;;;14.50;99.90;;;;;;5102622;28;20301;-95
2022/08/30 08:29:14;;;;;;;1.58;0.93;;;14.70;99.90;;;;;;5093935;28;20036;-93
2022/08/30 08:31:40;;;;;;;5.15;1.08;;;14.80;99.90;;;;;;5097574;28;20020;-95
2022/08/30 08:34:07;;;;;;;1.98;1.20;;;14.90;99.90;;;;;;5096887;28;20029;-94
2022/08/30 08:36:34;;;;;;;1.23;0.80;;;15.00;99.90;;;;;;5096444;28;20115;-96
2022/08/30 08:39:01;;;;;;;1.42;0.82;;;15.10;99.90;;;;;;5097352;28;20028;-95
2022/08/30 08:41:52;;;;;;;2.35;0.90;;;15.30;99.90;;;;;;5099478;28;20115;-95
2022/08/30 08:44:52;;;;;;;3.50;1.20;;;15.40;99.90;;;;;;5099379;28;20136;-93
2022/08/30 08:47:36;;;;;;;2.00;1.00;;;15.60;99.90;;;;;;5103974;28;20032;-95
2022/08/30 08:50:06;;;;;;;2.92;1.42;;;15.80;99.90;;;;;;5102957;28;20024;-94
2022/08/30 08:55:23;;;;;;;3.58;1.20;;;16.00;99.90;;;;;;5101942;28;20086;-95
2022/08/30 08:57:51;;;;;;;1.08;0.75;;;16.10;99.90;;;;;;5101973;28;20147;-96
2022/08/30 09:00:17;;;;;;;4.25;1.23;;;16.10;99.90;;;;;;5103516;28;20032;-96
2022/08/30 09:02:45;;;;;;;5.63;1.05;;;16.10;99.90;;;;;;5108277;28;20049;-93
2022/08/30 09:05:19;;;;;;;6.47;1.30;;;16.20;99.70;;;;;;5108547;28;20085;-93
2022/08/30 09:07:56;;;;;;;3.75;1.00;;;16.30;98.80;;;;;;5104883;28;20028;-95
2022/08/30 09:10:23;;;;;;;5.25;1.00;;;16.30;98.20;;;;;;5102471;28;20497;-95
2022/08/30 09:12:52;;;;;;;2.15;0.93;;;16.50;97.80;;;;;;5103865;28;20558;-94
2022/08/30 09:15:24;;;;;;;2.03;1.15;;;16.50;96.70;;;;;;5101894;28;20042;-95
2022/08/30 09:17:56;;;;;;;3.50;1.17;;;16.60;95.80;;;;;;5103535;28;20137;-95
2022/08/30 09:20:37;;;;;;;3.15;0.90;;;16.60;94.90;;;;;;5104985;28;20036;-96
2022/08/30 09:23:29;;;;;;;3.72;1.70;;;16.70;94.10;;;;;;5107828;28;20038;-95
2022/08/30 09:26:01;;;;;;;3.78;1.20;;;16.80;93.60;;;;;;5105213;28;20058;-95
2022/08/30 09:28:53;;;;;;;3.42;1.00;;;17.00;93.20;;;;;;5105896;28;20024;-95
2022/08/30 09:31:24;;;;;;;1.88;1.10;;;17.10;92.80;;;;;;5104967;28;20058;-95
2022/08/30 09:34:08;;;;;;;2.15;1.08;;;17.30;92.40;;;;;;5104139;28;20082;-95
2022/08/30 09:36:45;;;;;;;4.80;1.30;;;17.40;91.60;;;;;;5106275;28;20024;-95
2022/08/30 09:39:46;;;;;;;;;;;;;;;;;;;;;
2022/08/30 09:42:48;;;;;;;;;;;;;;;;;;;;;
2022/08/30 09:45:30;;;;;;;4.75;1.20;;;17.90;90.10;;;;;;5099171;28;19998;-95
2022/08/30 09:47:56;;;;;;;5.55;1.67;;;18.10;88.90;;;;;;5101139;28;20474;-94
2022/08/30 09:50:23;;;;;;;3.42;1.02;;;18.30;88.30;;;;;;5103136;28;20085;-95
2022/08/30 09:53:13;;;;;;;2.20;1.13;;;18.50;87.20;;;;;;5100853;28;20134;-94
2022/08/30 09:55:55;;;;;;;2.20;1.00;;;18.70;86.50;;;;;;5098602;28;20036;-94
2022/08/30 09:58:27;;;;;;;4.15;1.30;;;18.90;85.70;;;;;;5099826;28;20024;-94
2022/08/30 10:01:21;;;;;;;2.83;0.77;;;19.10;84.30;;;;;;5102639;28;20107;-94
2022/08/30 10:04:07;;;;;;;2.92;0.80;;;19.30;83.60;;;;;;5097613;28;20032;-96
2022/08/30 10:06:40;;;;;;;2.85;1.00;;;19.50;82.90;;;;;;5104184;28;20047;-96
2022/08/30 10:09:12;;;;;;;2.15;1.02;;;19.70;81.90;;;;;;5103938;28;20020;-96
2022/08/30 10:12:05;;;;;;;3.65;1.02;;;19.70;80.30;;;;;;5103627;28;20055;-94
2022/08/30 10:14:52;;;;;;;2.85;0.95;;;19.80;79.20;;;;;;5103398;28;20039;-96
2022/08/30 10:17:37;;;;;;;3.92;1.33;;;19.90;78.30;;;;;;5102963;28;20051;-94
2022/08/30 10:20:41;;;;;;;3.97;1.00;;;20.00;77.50;;;;;;5099133;28;20024;-96
2022/08/30 10:23:18;;;;;;;3.78;1.20;;;20.20;76.80;;;;;;5101218;28;20016;-94
2022/08/30 10:26:16;;;;;;;4.78;1.00;;;20.50;76.00;;;;;;5115659;28;20039;-96
2022/08/30 10:28:49;;;;;;;1.55;0.85;;;20.60;74.10;;;;;;5108909;28;20028;-95
2022/08/30 10:31:41;;;;;;;1.83;1.00;;;20.70;73.80;;;;;;5098656;28;20024;-90
2022/08/30 10:34:25;;;;;;;2.97;1.27;;;20.80;73.10;;;;;;5057106;28;20037;-90
2022/08/30 10:37:01;;;;;;;3.08;1.02;;;21.00;72.30;;;;;;5056399;28;20071;-91
2022/08/30 10:41:11;;;;;;;2.40;0.93;;;21.00;71.50;;;;;;5059257;28;20032;-90
2022/08/30 10:42:53;;;;;;;2.72;1.05;;;21.00;71.00;;;;;;5059098;28;20065;-89
2022/08/30 10:45:20;;;;;;;2.72;1.05;;;21.20;71.00;;;;;;5072466;28;20094;-90
2022/08/30 10:48:26;;;;;;;3.08;1.00;;;21.40;70.00;;;;;;5054530;28;20445;-92
2022/08/30 10:50:55;;;;;;;2.17;1.00;;;21.50;69.20;;;;;;5053800;28;20033;-90
2022/08/30 10:53:31;;;;;;;5.75;1.10;;;21.60;68.70;;;;;;5054018;28;20021;-90
2022/08/30 10:56:05;;;;;;;3.83;1.10;;;21.80;68.20;;;;;;5066143;28;20047;-90
2022/08/30 10:58:32;;;;;;;2.10;0.70;;;22.00;67.50;;;;;;5065301;28;20350;-90
2022/08/30 11:01:24;;;;;;;2.58;0.90;;;22.10;66.60;;;;;;5076262;28;20032;-91
2022/08/30 11:04:32;;;;;;;2.33;1.10;;;22.10;66.00;;;;;;5074658;28;20033;-91
2022/08/30 11:07:49;;;;;;;1.48;0.90;;;22.20;65.70;;;;;;5074975;28;20032;-90
2022/08/30 11:10:53;;;;;;;2.67;0.95;;;22.30;66.10;;;;;;5036680;28;20052;-92
2022/08/30 11:13:28;;;;;;;2.35;0.80;;;22.50;65.60;;;;;;5037156;28;20107;-90
2022/08/30 11:16:14;;;;;;;3.58;1.23;;;22.50;65.60;;;;;;5036679;28;20040;-90
2022/08/30 11:19:37;;;;;;;2.28;0.90;;;22.60;65.50;;;;;;5053203;28;20053;-91
2022/08/30 11:22:44;;;;;;;5.07;1.00;;;22.60;65.00;;;;;;5038965;28;20041;-91
2022/08/30 11:25:36;;;;;;;4.82;1.65;;;22.50;64.80;;;;;;5049857;28;20103;-90
2022/08/30 11:28:05;;;;;;;4.80;1.05;;;22.30;64.70;;;;;;5036614;28;20464;-90
2022/08/30 11:30:36;;;;;;;2.42;1.23;;;22.30;65.00;;;;;;5020932;28;20044;-91
2022/08/30 11:33:45;;;;;;;2.95;1.15;;;22.30;64.80;;;;;;5036578;28;20033;-91
2022/08/30 11:36:52;;;;;;;2.63;1.20;;;22.50;64.20;;;;;;5019314;28;20507;-91
2022/08/30 11:39:48;;;;;;;3.05;1.10;;;22.60;64.00;;;;;;5013156;28;20415;-91
2022/08/30 11:42:44;;;;;;;2.55;1.08;;;22.80;63.80;;;;;;5051822;28;20029;-91
2022/08/30 11:45:26;;;;;;;1.10;0.98;;;23.00;62.90;;;;;;5036358;28;20087;-89
2022/08/30 11:48:18;;;;;;;1.40;0.90;;;23.00;62.40;;;;;;5040238;28;20421;-92
2022/08/30 11:51:03;;;;;;;1.85;1.05;;;23.00;62.70;;;;;;5038032;28;20029;-90
2022/08/30 11:53:35;;;;;;;2.17;0.95;;;23.20;62.80;;;;;;5037175;28;20041;-91
2022/08/30 11:57:15;;;;;;;1.35;0.80;;;23.40;62.50;;;;;;5048157;28;20059;-93
2022/08/30 11:59:45;;;;;;;3.03;1.00;;;23.50;62.10;;;;;;4917754;29;20032;-92
2022/08/30 12:02:43;;;;;;;3.40;1.00;;;23.50;61.90;;;;;;4917339;29;20047;-91
2022/08/30 12:05:43;;;;;;;1.00;0.75;;;23.40;61.70;;;;;;4917313;29;20087;-92
2022/08/30 12:08:32;;;;;;;2.75;1.17;;;23.30;61.50;;;;;;4915317;29;20538;-90
2022/08/30 12:11:03;;;;;;;4.90;1.17;;;23.50;61.10;;;;;;4945273;28;20047;-90
2022/08/30 12:13:55;;;;;;;4.05;1.13;;;23.60;60.80;;;;;;4938177;28;20642;-91
2022/08/30 12:18:26;;;;;;;2.35;1.17;;;23.70;60.00;;;;;;4937535;29;20118;-89
2022/08/30 12:19:24;;;;;;;6.30;1.08;;;23.60;59.80;;;;;;4957315;28;20057;-88
2022/08/30 12:21:56;;;;;;;3.95;0.90;;;23.50;60.30;;;;;;4941351;28;20031;-89
2022/08/30 12:24:28;;;;;;;1.92;1.10;;;23.50;59.90;;;;;;4941291;29;20043;-95
2022/08/30 12:26:57;;;;;;;1.27;1.15;;;23.50;59.90;;;;;;4950049;29;20039;-95
2022/08/30 12:29:28;;;;;;;4.97;1.30;;;23.90;59.90;;;;;;4948260;29;20024;-95
2022/08/30 12:32:02;;;;;;;5.07;1.40;;;24.30;59.30;;;;;;4950641;28;20650;-95
2022/08/30 12:34:29;;;;;;;4.88;1.25;;;24.40;58.70;;;;;;5051854;28;20060;-95
2022/08/30 12:37:01;;;;;;;4.43;1.30;;;24.40;58.10;;;;;;5065565;28;20140;-94
2022/08/30 12:39:41;;;;;;;2.70;1.02;;;24.10;58.10;;;;;;5067009;28;20032;-95
2022/08/30 12:42:28;;;;;;;3.78;1.33;;;23.90;58.40;;;;;;5063231;28;20025;-95
2022/08/30 12:44:59;;;;;;;3.50;1.00;;;23.70;58.80;;;;;;5064642;28;20040;-96
2022/08/30 12:47:31;;;;;;;1.73;0.93;;;23.60;59.10;;;;;;5047505;28;20075;-96
2022/08/30 12:49:58;;;;;;;5.40;1.27;;;23.70;59.20;;;;;;5065884;28;20075;-95
2022/08/30 12:52:37;;;;;;;3.90;1.30;;;23.60;59.10;;;;;;5072004;28;20116;-95
2022/08/30 12:55:20;;;;;;;3.60;1.10;;;23.40;59.30;;;;;;5065761;28;20228;-95
2022/08/30 12:58:09;;;;;;;5.72;1.65;;;23.20;59.60;;;;;;5065721;28;20033;-95
2022/08/30 13:00:41;;;;;;;2.83;1.40;;;23.10;59.90;;;;;;5072008;28;20036;-96
2022/08/30 13:03:27;;;;;;;6.03;1.40;;;23.10;60.00;;;;;;5075186;28;20089;-94
2022/08/30 13:06:03;;;;;;;4.78;1.30;;;22.90;60.00;;;;;;5075954;28;20048;-94
2022/08/30 13:08:35;;;;;;;1.75;0.80;;;22.90;60.50;;;;;;5075747;28;20032;-93
2022/08/30 13:11:07;;;;;;;2.75;1.30;;;22.80;60.70;;;;;;5077756;28;20093;-95
2022/08/30 13:13:47;;;;;;;4.78;1.23;;;22.60;61.00;;;;;;5072489;28;20104;-94
2022/08/30 13:16:34;;;;;;;5.03;1.55;;;22.50;61.30;;;;;;5069567;28;20044;-95
2022/08/30 13:19:29;;;;;;;6.30;1.40;;;22.40;61.60;;;;;;5068508;28;20032;-95
2022/08/30 13:21:57;;;;;;;2.97;1.20;;;22.30;61.60;;;;;;5070267;28;20036;-93